Terminal Aerodrome Forecast
Issued by NWS

Home | Current Version | Previous Version | Text Only | Print | Product List | Glossary Off
Versions: 1 2 3 4 5 6 7 8 9 10 11 12

992
FTUS45 KGGW 242332 AAA
TAFSDY
TAF AMD
KSDY 242332Z 2500/2524 03010KT P6SM BKN025
     FM251700 03009KT P6SM BKN040=

USA.gov is the U.S. government's official web portal to all federal, state and local government web resources and services.